Time;durP1;ratioP1;P1;durP2;ratioP2;P2;SDS_P1;SDS_P2;PMS_P1;PMS_P2;Temp;Humidity;BMP_temperature;BMP_pressure;BME280_temperature;BME280_humidity;BME280_pressure;Samples;Min_cycle;Max_cycle;Signal;HPM_P1;HPM_P2
2023/09/19 00:01:07;;;;;;;3.63;1.97;;;;;;;;;;6299328;22;20610;-67
2023/09/19 00:03:37;;;;;;;2.27;1.90;;;;;;;;;;6299622;22;20534;-68
2023/09/19 00:06:07;;;;;;;4.90;2.50;;;;;;;;;;6300040;22;20585;-67
2023/09/19 00:08:35;;;;;;;4.70;2.27;;;;;;;;;;6301035;22;20548;-68
2023/09/19 00:11:05;;;;;;;4.93;2.50;;;;;;;;;;6300309;22;20575;-67
2023/09/19 00:13:36;;;;;;;6.23;1.90;;;;;;;;;;6300956;22;20648;-66
2023/09/19 00:16:11;;;;;;;6.43;2.30;;;;;;;;;;6301123;22;20570;-67
2023/09/19 00:18:39;;;;;;;2.50;1.93;;;;;;;;;;6274342;22;20524;-67
2023/09/19 00:21:08;;;;;;;2.03;1.93;;;;;;;;;;6299825;22;20617;-67
2023/09/19 00:23:36;;;;;;;4.73;2.37;;;;;;;;;;6301656;22;20548;-67
2023/09/19 00:26:04;;;;;;;9.03;2.83;;;;;;;;;;6301189;22;20569;-67
2023/09/19 00:28:32;;;;;;;2.80;1.80;;;;;;;;;;6274799;22;20569;-67
2023/09/19 00:31:01;;;;;;;6.60;2.30;;;;;;;;;;6301197;22;20577;-67
2023/09/19 00:33:31;;;;;;;8.07;1.93;;;;;;;;;;6300938;22;20550;-67
2023/09/19 00:36:01;;;;;;;7.37;2.20;;;;;;;;;;6299102;22;20643;-67
2023/09/19 00:38:30;;;;;;;1.67;1.57;;;;;;;;;;6300760;22;20534;-67
2023/09/19 00:40:59;;;;;;;7.83;2.53;;;;;;;;;;6300151;22;20613;-67
2023/09/19 00:43:28;;;;;;;7.27;2.57;;;;;;;;;;6300014;22;20569;-67
2023/09/19 00:46:00;;;;;;;2.30;2.10;;;;;;;;;;6275078;22;20557;-67
2023/09/19 00:48:35;;;;;;;2.00;1.80;;;;;;;;;;6300450;22;20530;-66
2023/09/19 00:51:04;;;;;;;2.57;1.70;;;;;;;;;;6300491;22;20530;-67
2023/09/19 00:53:33;;;;;;;6.43;2.27;;;;;;;;;;6298864;22;20577;-66
2023/09/19 00:56:03;;;;;;;3.60;2.00;;;;;;;;;;6299708;22;20546;-66
2023/09/19 00:58:35;;;;;;;7.77;2.47;;;;;;;;;;6298515;22;20637;-66
2023/09/19 01:01:06;;;;;;;5.20;2.50;;;;;;;;;;6299887;22;20580;-66
2023/09/19 01:03:40;;;;;;;4.70;2.60;;;;;;;;;;6270790;22;20530;-67
2023/09/19 01:06:08;;;;;;;1.97;1.77;;;;;;;;;;6299067;22;20538;-66
2023/09/19 01:08:36;;;;;;;4.30;2.10;;;;;;;;;;6298145;22;21031;-67
2023/09/19 01:11:11;;;;;;;3.23;2.30;;;;;;;;;;6299948;22;20883;-66
2023/09/19 01:13:45;;;;;;;6.80;2.87;;;;;;;;;;6298061;22;20541;-67
2023/09/19 01:16:18;;;;;;;7.17;3.30;;;;;;;;;;6299222;22;20530;-67
2023/09/19 01:18:55;;;;;;;7.37;2.20;;;;;;;;;;6299056;22;20576;-67
2023/09/19 01:21:28;;;;;;;3.63;2.27;;;;;;;;;;6298868;22;20553;-67
2023/09/19 01:24:15;;;;;;;4.70;2.27;;;;;;;;;;6298525;22;20549;-67
2023/09/19 01:26:55;;;;;;;2.87;2.60;;;;;;;;;;6299282;22;20520;-67
2023/09/19 01:29:32;;;;;;;5.83;2.87;;;;;;;;;;6296792;22;20631;-66
2023/09/19 01:32:04;;;;;;;5.77;3.67;;;;;;;;;;6272687;22;20538;-67
2023/09/19 01:34:46;;;;;;;2.40;2.20;;;;;;;;;;6297476;22;20537;-66
2023/09/19 01:37:18;;;;;;;4.63;2.33;;;;;;;;;;6299170;22;20542;-66
2023/09/19 01:39:48;;;;;;;6.43;2.73;;;;;;;;;;6297713;22;20530;-67
2023/09/19 01:42:22;;;;;;;2.80;2.20;;;;;;;;;;6271887;22;20662;-67
2023/09/19 01:44:53;;;;;;;3.47;2.20;;;;;;;;;;6298028;22;20534;-67
2023/09/19 01:47:28;;;;;;;3.97;2.03;;;;;;;;;;6299713;22;20538;-67
2023/09/19 01:50:02;;;;;;;8.47;2.27;;;;;;;;;;6297889;22;20501;-67
2023/09/19 01:52:33;;;;;;;2.90;2.70;;;;;;;;;;6298765;22;20550;-67
2023/09/19 01:55:05;;;;;;;2.90;2.20;;;;;;;;;;6298182;22;20515;-67
2023/09/19 01:57:37;;;;;;;3.77;2.07;;;;;;;;;;6298387;22;20557;-67
2023/09/19 02:00:08;;;;;;;4.90;2.27;;;;;;;;;;6297674;22;20564;-67
2023/09/19 02:02:45;;;;;;;4.30;2.13;;;;;;;;;;6297032;22;20542;-67
2023/09/19 02:05:14;;;;;;;2.70;2.40;;;;;;;;;;6296618;22;20572;-67
2023/09/19 02:07:42;;;;;;;2.50;2.23;;;;;;;;;;6298705;22;21121;-67
2023/09/19 02:10:11;;;;;;;6.43;2.20;;;;;;;;;;6271245;22;20548;-66
2023/09/19 02:12:40;;;;;;;5.07;1.93;;;;;;;;;;6270675;22;20629;-67
2023/09/19 02:15:09;;;;;;;2.87;1.90;;;;;;;;;;6298086;22;20573;-67
2023/09/19 02:17:38;;;;;;;2.63;2.00;;;;;;;;;;6298481;22;20544;-67
2023/09/19 02:20:10;;;;;;;3.33;1.87;;;;;;;;;;6298829;22;20601;-67
2023/09/19 02:22:38;;;;;;;12.20;2.00;;;;;;;;;;6297974;22;20569;-67
2023/09/19 02:25:08;;;;;;;2.00;1.90;;;;;;;;;;6298238;22;20573;-67
2023/09/19 02:27:37;;;;;;;8.57;2.70;;;;;;;;;;6298924;22;20585;-67
2023/09/19 02:30:06;;;;;;;3.00;2.30;;;;;;;;;;6298738;22;20566;-67
2023/09/19 02:32:38;;;;;;;3.57;2.10;;;;;;;;;;6298551;22;20577;-67
2023/09/19 02:35:11;;;;;;;8.30;2.33;;;;;;;;;;6271839;22;20527;-67
2023/09/19 02:37:39;;;;;;;3.57;2.00;;;;;;;;;;6271899;22;20538;-67
2023/09/19 02:40:18;;;;;;;6.60;2.30;;;;;;;;;;6298713;22;20569;-67
2023/09/19 02:42:48;;;;;;;2.40;2.20;;;;;;;;;;6299147;22;20560;-67
2023/09/19 02:45:18;;;;;;;7.80;2.20;;;;;;;;;;6298046;22;20576;-67
2023/09/19 02:47:46;;;;;;;5.67;3.03;;;;;;;;;;6298015;22;20570;-67
2023/09/19 02:50:17;;;;;;;3.67;2.10;;;;;;;;;;6297971;22;20573;-66
2023/09/19 02:52:47;;;;;;;4.50;3.13;;;;;;;;;;6272417;22;20566;-66
2023/09/19 02:55:17;;;;;;;4.80;2.50;;;;;;;;;;6298261;22;20862;-67
2023/09/19 02:57:47;;;;;;;5.00;2.77;;;;;;;;;;6298265;22;20546;-67
2023/09/19 03:00:16;;;;;;;5.83;2.57;;;;;;;;;;6298182;22;20518;-68
2023/09/19 03:02:46;;;;;;;2.50;2.30;;;;;;;;;;6297035;22;20764;-67
2023/09/19 03:05:15;;;;;;;4.07;2.57;;;;;;;;;;6270579;22;20588;-67
2023/09/19 03:07:50;;;;;;;5.47;2.80;;;;;;;;;;6271393;22;20567;-68
2023/09/19 03:10:18;;;;;;;2.60;2.30;;;;;;;;;;6271760;22;20534;-67
2023/09/19 03:12:47;;;;;;;4.27;2.50;;;;;;;;;;6270483;22;21428;-67
2023/09/19 03:15:16;;;;;;;4.30;2.70;;;;;;;;;;6298201;22;20570;-67
2023/09/19 03:17:47;;;;;;;4.17;2.60;;;;;;;;;;6271881;22;20558;-67
2023/09/19 03:20:20;;;;;;;5.60;3.10;;;;;;;;;;6271889;22;20531;-68
2023/09/19 03:22:52;;;;;;;4.00;2.50;;;;;;;;;;6271174;22;20519;-67
2023/09/19 03:25:22;;;;;;;4.70;2.93;;;;;;;;;;6272153;22;20562;-68
2023/09/19 03:27:52;;;;;;;3.23;2.93;;;;;;;;;;6273021;22;20533;-67
2023/09/19 03:30:22;;;;;;;3.20;2.83;;;;;;;;;;6272309;22;20567;-67
2023/09/19 03:32:51;;;;;;;4.13;2.40;;;;;;;;;;6273916;22;20566;-67
2023/09/19 03:35:19;;;;;;;5.70;2.77;;;;;;;;;;6297687;22;20566;-67
2023/09/19 03:37:49;;;;;;;3.67;2.30;;;;;;;;;;6247647;22;20574;-67
2023/09/19 03:40:21;;;;;;;3.47;3.17;;;;;;;;;;6271331;22;20577;-67
2023/09/19 03:42:51;;;;;;;3.10;2.70;;;;;;;;;;6273218;22;20578;-67
2023/09/19 03:45:19;;;;;;;3.80;3.37;;;;;;;;;;6299197;22;20552;-67
2023/09/19 03:47:51;;;;;;;6.90;2.77;;;;;;;;;;6274345;22;20556;-67
2023/09/19 03:50:22;;;;;;;9.60;2.83;;;;;;;;;;6299913;22;20545;-67
2023/09/19 03:52:51;;;;;;;5.70;3.50;;;;;;;;;;6248043;22;20570;-67
2023/09/19 03:55:21;;;;;;;12.07;3.00;;;;;;;;;;6272860;22;20550;-67
2023/09/19 03:57:50;;;;;;;4.00;2.63;;;;;;;;;;6273255;22;20554;-66
2023/09/19 04:00:21;;;;;;;3.60;2.77;;;;;;;;;;6271761;22;20566;-67
2023/09/19 04:02:49;;;;;;;5.00;2.80;;;;;;;;;;6270896;22;20596;-67
2023/09/19 04:05:17;;;;;;;5.30;3.17;;;;;;;;;;6271324;22;20554;-67
2023/09/19 04:07:47;;;;;;;5.40;3.77;;;;;;;;;;6271390;22;20537;-67
2023/09/19 04:10:16;;;;;;;8.13;2.80;;;;;;;;;;6270072;22;20574;-67
2023/09/19 04:12:53;;;;;;;9.70;2.97;;;;;;;;;;6269723;22;20606;-68
2023/09/19 04:15:23;;;;;;;7.90;2.70;;;;;;;;;;6295500;22;20818;-67
2023/09/19 04:17:52;;;;;;;3.00;2.73;;;;;;;;;;6271029;22;20538;-67
2023/09/19 04:20:22;;;;;;;5.10;3.27;;;;;;;;;;6270495;22;20628;-67
2023/09/19 04:22:51;;;;;;;3.23;2.90;;;;;;;;;;6297954;22;20629;-66
2023/09/19 04:25:20;;;;;;;4.10;3.30;;;;;;;;;;6270882;22;20677;-67
2023/09/19 04:27:48;;;;;;;7.47;3.67;;;;;;;;;;6298570;22;20589;-67
2023/09/19 04:30:18;;;;;;;9.37;3.37;;;;;;;;;;6297703;22;20577;-67
2023/09/19 04:32:50;;;;;;;5.07;3.63;;;;;;;;;;6298386;22;20564;-67
2023/09/19 04:35:18;;;;;;;5.63;3.17;;;;;;;;;;6297722;22;20541;-67
2023/09/19 04:37:47;;;;;;;5.50;2.80;;;;;;;;;;6297680;22;20635;-67
2023/09/19 04:40:17;;;;;;;2.90;2.70;;;;;;;;;;6297775;22;20570;-67
2023/09/19 04:42:45;;;;;;;4.73;2.97;;;;;;;;;;6297491;22;20617;-67
2023/09/19 04:45:14;;;;;;;6.20;2.93;;;;;;;;;;6299944;22;20554;-67
2023/09/19 04:47:44;;;;;;;5.67;3.30;;;;;;;;;;6301350;22;20584;-67
2023/09/19 04:50:13;;;;;;;4.50;2.97;;;;;;;;;;6301210;22;20574;-67
2023/09/19 04:52:44;;;;;;;3.70;3.40;;;;;;;;;;6301627;22;20566;-67
2023/09/19 04:55:16;;;;;;;3.00;2.30;;;;;;;;;;6301930;22;20569;-67
2023/09/19 04:57:45;;;;;;;3.33;3.03;;;;;;;;;;6301654;22;20530;-67
2023/09/19 05:00:14;;;;;;;4.40;2.80;;;;;;;;;;6275077;22;20570;-68
2023/09/19 05:02:44;;;;;;;5.47;3.00;;;;;;;;;;6299562;22;20613;-67
2023/09/19 05:05:14;;;;;;;5.93;3.00;;;;;;;;;;6248181;22;20546;-67
2023/09/19 05:07:43;;;;;;;2.90;2.70;;;;;;;;;;6274365;22;20566;-68
2023/09/19 05:10:12;;;;;;;5.23;3.80;;;;;;;;;;6301845;22;20588;-68
2023/09/19 05:12:40;;;;;;;5.00;3.30;;;;;;;;;;6299734;22;20609;-68
2023/09/19 05:15:09;;;;;;;4.80;3.40;;;;;;;;;;6301245;22;20577;-68
2023/09/19 05:17:38;;;;;;;4.20;3.17;;;;;;;;;;6275420;22;20578;-68
2023/09/19 05:20:12;;;;;;;4.03;2.77;;;;;;;;;;6302355;22;20558;-67
2023/09/19 05:22:41;;;;;;;3.67;3.30;;;;;;;;;;6302358;22;20581;-67
2023/09/19 05:25:09;;;;;;;6.00;3.57;;;;;;;;;;6302213;22;20581;-68
2023/09/19 05:27:37;;;;;;;6.43;3.30;;;;;;;;;;6302307;22;20570;-67
2023/09/19 05:30:07;;;;;;;4.30;3.90;;;;;;;;;;6301496;22;20574;-67
2023/09/19 05:32:35;;;;;;;7.10;3.60;;;;;;;;;;6301945;22;20589;-68
2023/09/19 05:35:08;;;;;;;5.37;3.00;;;;;;;;;;6276040;22;20562;-68
2023/09/19 05:37:37;;;;;;;8.10;4.10;;;;;;;;;;6275662;22;20522;-67
2023/09/19 05:40:10;;;;;;;4.17;3.20;;;;;;;;;;6301937;22;20562;-68
2023/09/19 05:42:39;;;;;;;5.93;3.90;;;;;;;;;;6301080;22;20609;-68
2023/09/19 05:45:08;;;;;;;4.20;3.40;;;;;;;;;;6299374;22;20566;-68
2023/09/19 05:47:36;;;;;;;6.90;3.37;;;;;;;;;;6273808;22;20554;-67
2023/09/19 05:50:05;;;;;;;6.40;3.10;;;;;;;;;;6300653;22;20574;-66
2023/09/19 05:52:33;;;;;;;7.57;4.07;;;;;;;;;;6299041;22;20588;-67
2023/09/19 05:55:05;;;;;;;5.50;3.20;;;;;;;;;;6273328;22;20582;-67
2023/09/19 05:57:33;;;;;;;7.00;3.50;;;;;;;;;;6259775;22;20624;-68
2023/09/19 06:00:01;;;;;;;3.97;2.70;;;;;;;;;;6277171;22;21184;-69
2023/09/19 06:02:33;;;;;;;2.77;2.53;;;;;;;;;;6276733;22;20681;-69
2023/09/19 06:05:01;;;;;;;3.90;3.00;;;;;;;;;;6251756;22;20554;-69
2023/09/19 06:07:36;;;;;;;3.50;2.97;;;;;;;;;;6275641;22;20658;-68
2023/09/19 06:10:07;;;;;;;2.97;2.57;;;;;;;;;;6276574;22;21164;-68
2023/09/19 06:12:37;;;;;;;5.43;3.23;;;;;;;;;;6275047;22;20732;-68
2023/09/19 06:15:08;;;;;;;2.90;2.70;;;;;;;;;;6279594;22;20644;-67
2023/09/19 06:17:37;;;;;;;9.10;3.17;;;;;;;;;;6249873;22;20682;-68
2023/09/19 06:20:12;;;;;;;3.83;3.07;;;;;;;;;;6278501;22;20637;-68
2023/09/19 06:22:41;;;;;;;3.50;3.20;;;;;;;;;;6283165;22;20608;-69
2023/09/19 06:25:11;;;;;;;6.23;3.63;;;;;;;;;;6279863;22;20629;-68
2023/09/19 06:27:41;;;;;;;5.90;3.50;;;;;;;;;;6277561;22;20634;-68
2023/09/19 06:30:11;;;;;;;6.10;3.40;;;;;;;;;;6275896;22;20657;-69
2023/09/19 06:32:39;;;;;;;4.53;4.00;;;;;;;;;;6224202;22;20653;-69
2023/09/19 06:35:08;;;;;;;7.83;2.87;;;;;;;;;;6279048;22;20657;-69
2023/09/19 06:37:38;;;;;;;4.10;2.63;;;;;;;;;;6284333;22;20610;-69
2023/09/19 06:40:08;;;;;;;3.40;3.10;;;;;;;;;;6283804;22;20605;-68
2023/09/19 06:42:38;;;;;;;6.23;3.43;;;;;;;;;;6275793;22;20739;-67
2023/09/19 06:45:07;;;;;;;4.57;3.27;;;;;;;;;;6273789;22;20649;-68
2023/09/19 06:47:35;;;;;;;5.00;3.43;;;;;;;;;;6275125;22;21045;-69
2023/09/19 06:50:05;;;;;;;2.50;2.40;;;;;;;;;;6274251;22;20708;-67
2023/09/19 06:52:34;;;;;;;4.23;3.37;;;;;;;;;;6274562;22;20673;-67
2023/09/19 06:55:03;;;;;;;2.90;2.70;;;;;;;;;;6274727;22;20649;-68
2023/09/19 06:57:31;;;;;;;3.30;2.30;;;;;;;;;;6276135;22;20716;-68
2023/09/19 07:00:01;;;;;;;6.90;2.90;;;;;;;;;;6271068;22;20600;-67
2023/09/19 07:02:29;;;;;;;6.37;2.83;;;;;;;;;;6294600;22;20613;-68
2023/09/19 07:04:58;;;;;;;3.40;2.70;;;;;;;;;;6287709;22;20606;-67
2023/09/19 07:07:26;;;;;;;3.57;2.23;;;;;;;;;;6290508;22;20567;-68
2023/09/19 07:09:54;;;;;;;8.27;2.30;;;;;;;;;;6293309;22;20578;-67
2023/09/19 07:12:22;;;;;;;2.87;2.50;;;;;;;;;;6293698;22;20645;-66
2023/09/19 07:14:51;;;;;;;4.07;1.87;;;;;;;;;;6292536;22;20574;-67
2023/09/19 07:17:21;;;;;;;4.67;2.20;;;;;;;;;;6291976;22;20574;-67
2023/09/19 07:19:50;;;;;;;2.70;1.90;;;;;;;;;;6265059;22;20574;-67
2023/09/19 07:22:18;;;;;;;3.53;1.97;;;;;;;;;;6264947;22;20644;-68
2023/09/19 07:24:48;;;;;;;15.37;2.33;;;;;;;;;;6293725;22;20930;-68
2023/09/19 07:27:17;;;;;;;3.43;1.80;;;;;;;;;;6299448;22;20538;-69
2023/09/19 07:29:45;;;;;;;3.67;1.67;;;;;;;;;;6297063;22;20601;-67
2023/09/19 07:32:13;;;;;;;4.67;2.00;;;;;;;;;;6291256;22;20574;-67
2023/09/19 07:34:44;;;;;;;3.30;2.30;;;;;;;;;;6267445;22;20570;-68
2023/09/19 07:37:15;;;;;;;3.17;2.23;;;;;;;;;;6268970;22;20530;-67
2023/09/19 07:39:44;;;;;;;4.40;2.80;;;;;;;;;;6295141;22;20534;-68
2023/09/19 07:42:17;;;;;;;6.60;3.10;;;;;;;;;;6267537;22;20581;-68
2023/09/19 07:44:47;;;;;;;3.73;2.10;;;;;;;;;;6298226;22;20577;-67
2023/09/19 07:47:15;;;;;;;4.47;3.10;;;;;;;;;;6296302;22;21112;-69
2023/09/19 07:49:47;;;;;;;5.10;2.00;;;;;;;;;;6296989;22;20574;-68
2023/09/19 07:52:16;;;;;;;2.63;2.10;;;;;;;;;;6296550;22;20573;-69
2023/09/19 07:54:45;;;;;;;7.40;2.70;;;;;;;;;;6270083;22;20558;-69
2023/09/19 07:57:15;;;;;;;4.33;2.37;;;;;;;;;;6295292;22;20944;-66
2023/09/19 07:59:43;;;;;;;3.53;2.10;;;;;;;;;;6295715;22;20566;-67
2023/09/19 08:02:15;;;;;;;3.90;2.00;;;;;;;;;;6297536;22;20577;-68
2023/09/19 08:04:46;;;;;;;3.10;1.90;;;;;;;;;;6297515;22;20589;-68
2023/09/19 08:07:16;;;;;;;2.80;1.90;;;;;;;;;;6298132;22;20590;-70
2023/09/19 08:09:46;;;;;;;5.83;2.10;;;;;;;;;;6301463;22;20586;-67
2023/09/19 08:12:15;;;;;;;2.70;2.50;;;;;;;;;;6296136;22;20728;-69
2023/09/19 08:14:43;;;;;;;3.73;2.40;;;;;;;;;;6296873;22;20566;-67
2023/09/19 08:17:12;;;;;;;3.33;2.43;;;;;;;;;;6291280;22;20585;-67
2023/09/19 08:19:41;;;;;;;6.13;2.90;;;;;;;;;;6265257;22;20600;-67
2023/09/19 08:22:11;;;;;;;6.80;2.80;;;;;;;;;;6268273;22;20566;-67
2023/09/19 08:24:42;;;;;;;3.93;2.80;;;;;;;;;;6267080;22;20646;-67
2023/09/19 08:27:12;;;;;;;6.00;3.03;;;;;;;;;;6296168;22;20546;-67
2023/09/19 08:29:40;;;;;;;3.10;2.90;;;;;;;;;;6296854;22;20580;-67
2023/09/19 08:32:08;;;;;;;3.70;3.40;;;;;;;;;;6297461;22;20546;-67
2023/09/19 08:34:38;;;;;;;3.63;3.33;;;;;;;;;;6297386;22;20569;-67
2023/09/19 08:37:07;;;;;;;4.00;3.63;;;;;;;;;;6294164;22;20578;-67
2023/09/19 08:39:36;;;;;;;4.83;4.03;;;;;;;;;;6293337;22;20578;-67
2023/09/19 08:42:11;;;;;;;5.10;3.83;;;;;;;;;;6294034;22;20551;-67
2023/09/19 08:44:40;;;;;;;4.27;3.90;;;;;;;;;;6295274;22;20640;-67
2023/09/19 08:47:11;;;;;;;8.10;4.53;;;;;;;;;;6288103;22;20597;-66
2023/09/19 08:49:46;;;;;;;9.83;4.80;;;;;;;;;;6293708;22;20542;-66
2023/09/19 08:52:23;;;;;;;4.90;4.50;;;;;;;;;;6292948;22;20584;-67
2023/09/19 08:54:53;;;;;;;5.10;4.70;;;;;;;;;;6295975;22;20545;-66
2023/09/19 08:57:24;;;;;;;4.70;4.40;;;;;;;;;;6293101;22;20542;-66
2023/09/19 08:59:54;;;;;;;5.07;4.60;;;;;;;;;;6294609;22;20570;-67
2023/09/19 09:02:24;;;;;;;4.90;4.60;;;;;;;;;;6269871;22;20558;-68
2023/09/19 09:04:52;;;;;;;7.27;5.53;;;;;;;;;;6270842;22;20602;-67
2023/09/19 09:07:21;;;;;;;7.37;4.60;;;;;;;;;;6298912;22;20570;-67
2023/09/19 09:09:49;;;;;;;4.80;4.40;;;;;;;;;;6301004;22;20582;-68
2023/09/19 09:12:20;;;;;;;5.30;4.17;;;;;;;;;;6295080;22;20609;-66
2023/09/19 09:14:50;;;;;;;5.40;3.93;;;;;;;;;;6291553;22;20574;-67
2023/09/19 09:17:20;;;;;;;4.33;3.93;;;;;;;;;;6291866;22;20558;-67
2023/09/19 09:19:48;;;;;;;4.53;4.23;;;;;;;;;;6292676;22;20570;-67
2023/09/19 09:22:18;;;;;;;4.37;3.97;;;;;;;;;;6263361;22;20601;-67
2023/09/19 09:24:53;;;;;;;8.70;5.10;;;;;;;;;;6291150;22;20618;-67
2023/09/19 09:27:24;;;;;;;4.77;4.40;;;;;;;;;;6293402;22;20526;-66
2023/09/19 09:29:54;;;;;;;6.30;5.80;;;;;;;;;;6290174;22;20566;-66
2023/09/19 09:32:24;;;;;;;4.80;4.40;;;;;;;;;;6292776;22;20569;-67
2023/09/19 09:34:53;;;;;;;6.03;4.50;;;;;;;;;;6293782;22;20624;-66
2023/09/19 09:37:22;;;;;;;5.10;4.70;;;;;;;;;;6293993;22;20554;-72
2023/09/19 09:39:54;;;;;;;4.93;4.57;;;;;;;;;;6296978;22;20577;-69
2023/09/19 09:42:36;;;;;;;4.77;4.50;;;;;;;;;;6294163;22;20538;-67
2023/09/19 09:45:15;;;;;;;5.37;4.97;;;;;;;;;;6299639;22;20578;-70
2023/09/19 09:47:49;;;;;;;5.63;5.17;;;;;;;;;;6296479;22;20612;-67
2023/09/19 09:50:39;;;;;;;6.43;6.07;;;;;;;;;;6297472;22;20537;-68
2023/09/19 09:53:21;;;;;;;6.53;5.50;;;;;;;;;;6267729;22;20919;-67
2023/09/19 09:56:00;;;;;;;5.40;5.10;;;;;;;;;;6295803;22;20534;-66
2023/09/19 09:58:31;;;;;;;5.90;5.50;;;;;;;;;;6301115;22;20542;-71
2023/09/19 10:01:08;;;;;;;6.33;5.87;;;;;;;;;;6289688;22;20545;-66
2023/09/19 10:03:40;;;;;;;7.37;6.77;;;;;;;;;;6290189;22;20552;-68
2023/09/19 10:09:10;;;;;;;7.87;7.30;;;;;;;;;;6287290;22;20636;-68
2023/09/19 10:11:44;;;;;;;7.33;6.83;;;;;;;;;;6296459;22;20615;-66
2023/09/19 10:14:13;;;;;;;8.40;7.70;;;;;;;;;;6294286;22;20530;-66
2023/09/19 10:16:49;;;;;;;11.20;8.20;;;;;;;;;;6294668;22;21038;-67
2023/09/19 10:19:24;;;;;;;8.17;7.60;;;;;;;;;;6294389;22;20551;-66
2023/09/19 10:21:56;;;;;;;8.63;7.90;;;;;;;;;;6294430;22;20542;-65
2023/09/19 10:24:26;;;;;;;8.13;7.67;;;;;;;;;;6293976;22;20597;-65
2023/09/19 10:26:58;;;;;;;8.20;7.60;;;;;;;;;;6296381;22;20538;-67
2023/09/19 10:29:31;;;;;;;7.30;6.93;;;;;;;;;;6296015;22;20586;-66
2023/09/19 10:32:04;;;;;;;7.80;7.23;;;;;;;;;;6270143;22;20541;-65
2023/09/19 10:34:37;;;;;;;8.57;7.97;;;;;;;;;;6296485;22;20530;-65
2023/09/19 10:37:09;;;;;;;7.33;6.90;;;;;;;;;;6296056;22;20534;-65
2023/09/19 10:39:38;;;;;;;8.37;7.83;;;;;;;;;;6296207;22;20542;-65
2023/09/19 10:42:08;;;;;;;8.30;7.90;;;;;;;;;;6296780;22;20558;-68
2023/09/19 10:44:40;;;;;;;8.97;8.20;;;;;;;;;;6296764;22;20644;-66
2023/09/19 10:47:10;;;;;;;8.73;8.07;;;;;;;;;;6298074;22;20530;-65
2023/09/19 10:49:46;;;;;;;8.60;8.10;;;;;;;;;;6245048;22;20534;-65
2023/09/19 10:52:19;;;;;;;10.03;9.10;;;;;;;;;;6297603;22;20530;-66
2023/09/19 10:54:48;;;;;;;8.80;8.40;;;;;;;;;;6296251;22;20538;-66
2023/09/19 10:57:20;;;;;;;9.63;8.93;;;;;;;;;;6281847;22;20574;-67
2023/09/19 11:00:03;;;;;;;10.97;10.20;;;;;;;;;;6273474;22;20625;-67
2023/09/19 11:02:33;;;;;;;11.40;10.90;;;;;;;;;;6273024;22;20656;-67
2023/09/19 11:05:12;;;;;;;10.03;9.63;;;;;;;;;;6272784;22;20659;-67
2023/09/19 11:07:56;;;;;;;10.20;9.73;;;;;;;;;;6247727;22;20696;-67
2023/09/19 11:10:39;;;;;;;12.50;11.47;;;;;;;;;;6273912;22;21234;-67
2023/09/19 11:13:22;;;;;;;12.03;11.23;;;;;;;;;;6219087;22;20704;-67
2023/09/19 11:16:14;;;;;;;11.03;10.53;;;;;;;;;;6247413;22;20613;-67
2023/09/19 11:19:01;;;;;;;11.40;11.00;;;;;;;;;;6221814;22;20629;-67
2023/09/19 11:21:42;;;;;;;12.40;11.40;;;;;;;;;;6274377;22;20941;-70
2023/09/19 11:24:30;;;;;;;12.60;11.70;;;;;;;;;;6273350;22;20667;-70
2023/09/19 11:27:13;;;;;;;13.03;12.20;;;;;;;;;;6273265;22;20660;-68
2023/09/19 11:29:44;;;;;;;13.00;12.33;;;;;;;;;;6272062;22;20629;-69
2023/09/19 11:32:17;;;;;;;12.80;12.00;;;;;;;;;;6272918;22;20707;-69
2023/09/19 11:34:50;;;;;;;12.83;12.03;;;;;;;;;;6272968;22;20625;-68
2023/09/19 11:37:38;;;;;;;12.50;12.00;;;;;;;;;;6274279;22;21435;-66
2023/09/19 11:40:16;;;;;;;12.93;12.13;;;;;;;;;;6280851;22;20577;-71
2023/09/19 11:42:45;;;;;;;12.50;11.90;;;;;;;;;;6255743;22;20649;-69
2023/09/19 11:45:33;;;;;;;12.20;11.57;;;;;;;;;;6248546;22;20618;-72
2023/09/19 11:48:02;;;;;;;12.70;12.00;;;;;;;;;;6273794;22;20661;-73
2023/09/19 11:50:34;;;;;;;12.53;11.83;;;;;;;;;;6245201;22;21202;-70
2023/09/19 11:53:24;;;;;;;12.50;11.50;;;;;;;;;;6249437;22;20688;-68
2023/09/19 11:55:53;;;;;;;13.40;12.50;;;;;;;;;;6251587;22;20669;-70
2023/09/19 11:58:27;;;;;;;13.03;12.30;;;;;;;;;;6273594;22;20637;-72
2023/09/19 12:01:08;;;;;;;12.93;12.23;;;;;;;;;;6242693;22;20727;-70
2023/09/19 12:03:41;;;;;;;12.93;12.23;;;;;;;;;;6271274;22;20642;-71
2023/09/19 12:06:15;;;;;;;12.53;12.03;;;;;;;;;;6273358;22;20719;-72
2023/09/19 12:08:43;;;;;;;13.50;12.60;;;;;;;;;;6271078;22;20609;-72
2023/09/19 12:11:16;;;;;;;13.70;13.00;;;;;;;;;;6274082;22;20677;-73
2023/09/19 12:13:48;;;;;;;14.40;13.50;;;;;;;;;;6246616;22;20727;-72
2023/09/19 12:16:17;;;;;;;13.87;12.97;;;;;;;;;;6274507;22;20716;-72
2023/09/19 12:18:47;;;;;;;13.30;12.70;;;;;;;;;;6274022;22;20656;-72
2023/09/19 12:21:31;;;;;;;13.17;12.57;;;;;;;;;;6275191;22;20820;-69
2023/09/19 12:23:59;;;;;;;13.17;12.47;;;;;;;;;;6276249;22;20684;-69
2023/09/19 12:26:29;;;;;;;13.90;13.30;;;;;;;;;;6275583;22;20713;-71
2023/09/19 12:28:58;;;;;;;14.47;13.70;;;;;;;;;;6248114;22;21237;-70
2023/09/19 12:31:27;;;;;;;13.40;12.80;;;;;;;;;;6273393;22;20652;-68
2023/09/19 12:33:56;;;;;;;14.00;13.10;;;;;;;;;;6273084;22;20652;-68
2023/09/19 12:36:29;;;;;;;13.13;12.53;;;;;;;;;;6247225;22;20761;-67
2023/09/19 12:38:59;;;;;;;13.83;13.13;;;;;;;;;;6271099;22;20621;-67
2023/09/19 12:41:28;;;;;;;13.53;12.93;;;;;;;;;;6272431;22;21176;-67
2023/09/19 12:43:58;;;;;;;13.80;13.20;;;;;;;;;;6271729;22;20664;-67
2023/09/19 12:46:26;;;;;;;14.20;13.40;;;;;;;;;;6273162;22;20756;-67
2023/09/19 12:49:09;;;;;;;13.90;13.20;;;;;;;;;;6274407;22;20968;-66
2023/09/19 12:51:38;;;;;;;15.50;14.13;;;;;;;;;;6273051;22;20661;-66
2023/09/19 12:54:08;;;;;;;14.70;14.00;;;;;;;;;;6274372;22;20660;-66
2023/09/19 12:56:44;;;;;;;14.80;14.00;;;;;;;;;;6274174;22;21216;-66
2023/09/19 12:59:14;;;;;;;14.70;14.10;;;;;;;;;;6274634;22;21004;-66
2023/09/19 13:01:46;;;;;;;15.33;14.27;;;;;;;;;;6274040;22;20700;-66
2023/09/19 13:04:18;;;;;;;14.80;14.20;;;;;;;;;;6274568;22;20660;-67
2023/09/19 13:06:48;;;;;;;15.13;14.33;;;;;;;;;;6274010;22;20676;-68
2023/09/19 13:09:20;;;;;;;15.50;14.80;;;;;;;;;;6274653;22;20628;-67
2023/09/19 13:11:49;;;;;;;15.63;14.60;;;;;;;;;;6273591;22;20700;-68
2023/09/19 13:14:19;;;;;;;15.80;14.60;;;;;;;;;;6274624;22;20649;-67
2023/09/19 13:16:57;;;;;;;15.50;14.80;;;;;;;;;;6274586;22;20674;-67
2023/09/19 13:19:43;;;;;;;15.37;14.30;;;;;;;;;;6303487;22;20553;-68
2023/09/19 13:22:31;;;;;;;15.40;14.60;;;;;;;;;;6302461;22;20550;-68
2023/09/19 13:25:01;;;;;;;15.60;14.80;;;;;;;;;;6302714;22;20534;-68
2023/09/19 13:27:29;;;;;;;16.60;15.70;;;;;;;;;;6303074;22;20538;-68
2023/09/19 13:29:57;;;;;;;15.37;14.77;;;;;;;;;;6276724;22;20566;-69
2023/09/19 13:32:26;;;;;;;15.30;14.60;;;;;;;;;;6303091;22;20577;-68
2023/09/19 13:34:54;;;;;;;15.90;15.13;;;;;;;;;;6303241;22;20562;-68
2023/09/19 13:37:22;;;;;;;15.67;14.97;;;;;;;;;;6302907;22;20558;-68
2023/09/19 13:39:51;;;;;;;15.23;14.47;;;;;;;;;;6250522;22;20577;-68
2023/09/19 13:42:21;;;;;;;14.50;13.73;;;;;;;;;;6301946;22;20914;-68
2023/09/19 13:44:50;;;;;;;15.07;14.27;;;;;;;;;;6303127;22;20544;-68
2023/09/19 13:47:24;;;;;;;14.10;13.40;;;;;;;;;;6300911;22;20614;-68
2023/09/19 13:49:52;;;;;;;14.40;13.70;;;;;;;;;;6303017;22;20530;-68
2023/09/19 13:52:21;;;;;;;15.87;14.87;;;;;;;;;;6302741;22;20578;-69
2023/09/19 13:54:50;;;;;;;14.20;13.60;;;;;;;;;;6302702;22;20609;-67
2023/09/19 13:57:18;;;;;;;14.03;13.33;;;;;;;;;;6302055;22;20558;-67
2023/09/19 14:02:48;;;;;;;14.50;13.70;;;;;;;;;;6270743;22;20617;-68
2023/09/19 14:05:18;;;;;;;15.03;14.23;;;;;;;;;;6271557;22;20594;-68
2023/09/19 14:07:47;;;;;;;14.73;13.90;;;;;;;;;;6271908;22;20551;-68
2023/09/19 14:10:15;;;;;;;15.27;14.07;;;;;;;;;;6272715;22;20562;-67
2023/09/19 14:12:46;;;;;;;15.10;14.30;;;;;;;;;;6238172;22;20649;-85
2023/09/19 14:15:17;;;;;;;14.77;14.00;;;;;;;;;;6192254;23;20528;-85
2023/09/19 14:27:08;;;;;;;14.70;13.90;;;;;;;;;;6228604;22;20905;-83
2023/09/19 14:29:37;;;;;;;14.30;13.60;;;;;;;;;;6180777;22;21733;-68
2023/09/19 14:32:05;;;;;;;14.60;14.00;;;;;;;;;;6272522;22;20595;-69
2023/09/19 14:34:36;;;;;;;14.80;14.00;;;;;;;;;;6272645;22;20563;-68
2023/09/19 14:37:06;;;;;;;14.50;13.70;;;;;;;;;;6247032;22;20524;-68
2023/09/19 14:39:34;;;;;;;15.03;14.20;;;;;;;;;;6271759;22;20563;-68
2023/09/19 14:42:04;;;;;;;14.00;13.30;;;;;;;;;;6246587;22;20559;-68
2023/09/19 14:44:33;;;;;;;13.90;13.20;;;;;;;;;;6272175;22;20559;-68
2023/09/19 14:47:01;;;;;;;13.83;13.23;;;;;;;;;;6272560;22;20670;-68
2023/09/19 14:49:29;;;;;;;13.90;13.30;;;;;;;;;;6271865;22;20559;-68
2023/09/19 14:51:57;;;;;;;14.60;13.90;;;;;;;;;;6272556;22;20559;-68
2023/09/19 14:54:29;;;;;;;14.23;13.60;;;;;;;;;;6272078;22;20589;-67
2023/09/19 14:57:04;;;;;;;14.03;13.20;;;;;;;;;;6246313;22;21143;-68
2023/09/19 15:02:55;;;;;;;13.90;13.30;;;;;;;;;;6198876;22;20627;31
2023/09/19 15:11:17;;;;;;;14.20;13.50;;;;;;;;;;6197828;22;20583;-67
2023/09/19 15:13:46;;;;;;;14.50;13.90;;;;;;;;;;6271691;22;21031;-68
2023/09/19 15:16:15;;;;;;;14.27;13.63;;;;;;;;;;6244890;22;20562;-68
2023/09/19 15:21:42;;;;;;;14.40;13.60;;;;;;;;;;6245406;22;20622;-67
2023/09/19 15:24:11;;;;;;;14.10;13.40;;;;;;;;;;6245253;22;20602;-67
2023/09/19 15:26:41;;;;;;;14.40;13.70;;;;;;;;;;6245554;22;20605;-67